Abingdon, United Kingdom
Current Conditions -  °F | °C
As of 8:50 PM on Thursday 23 Oct 2014 (Local Time) from EGUB Reporting Station
Drizzle Drizzle  
Wind Chill: 57°   Ceiling: 3000
Heat Index: 57°   Visibility: 6mi
Dew Point: 55°   Wind: 10mph
Humidity: 94%   Direction: 170°S
Pressure: 30"   Gusts: NA
Location:  51.67°N, 1.29°W
Report Text: EGUB 231950Z 17009KT 9999 -DZ FEW009 SCT020 BKN030 14/13 Q1016 WHT TEMPO SCT009 GRN
Loading
Personal Weather Stations






























Interactive Weather Map New forecast layout! Learn more

10-Day Weather Forecast

Advertisements
Track Severe Weather on mobile